createdAt,value
2023-07-11T00:01:04.238Z,20.00
2023-07-11T00:02:03.990Z,20.00
2023-07-11T00:03:04.250Z,20.00
2023-07-11T00:05:04.167Z,20.00
2023-07-11T00:07:04.415Z,19.94
2023-07-11T00:08:04.545Z,19.94
2023-07-11T00:09:03.631Z,19.94
2023-07-11T00:10:04.410Z,19.94
2023-07-11T00:11:04.407Z,19.94
2023-07-11T00:12:04.407Z,19.94
2023-07-11T00:13:04.413Z,19.88
2023-07-11T00:15:04.417Z,19.88
2023-07-11T00:16:04.180Z,19.88
2023-07-11T00:17:03.885Z,19.88
2023-07-11T00:18:03.576Z,19.81
2023-07-11T00:19:04.260Z,19.81
2023-07-11T00:21:04.107Z,19.81
2023-07-11T00:22:03.779Z,19.75
2023-07-11T00:23:03.545Z,19.75
2023-07-11T00:24:03.636Z,19.75
2023-07-11T00:25:03.604Z,19.75
2023-07-11T00:26:03.754Z,19.69
2023-07-11T00:27:04.341Z,19.69
2023-07-11T00:28:04.017Z,19.69
2023-07-11T00:30:03.853Z,19.69
2023-07-11T00:31:04.014Z,19.69
2023-07-11T00:32:04.267Z,19.69
2023-07-11T00:33:04.041Z,19.62
2023-07-11T00:34:03.610Z,19.62
2023-07-11T00:35:04.371Z,19.62
2023-07-11T00:37:04.106Z,19.62
2023-07-11T00:38:03.861Z,19.62
2023-07-11T00:40:04.258Z,19.56
2023-07-11T00:41:03.958Z,19.56
2023-07-11T00:42:04.027Z,19.56
2023-07-11T00:43:04.023Z,19.50
2023-07-11T00:44:04.095Z,19.50
2023-07-11T00:45:03.692Z,19.50
2023-07-11T00:46:05.030Z,19.50
2023-07-11T00:48:04.228Z,19.44
2023-07-11T00:49:03.868Z,19.44
2023-07-11T00:50:03.867Z,19.44
2023-07-11T00:51:04.505Z,19.38
2023-07-11T00:52:04.509Z,19.38
2023-07-11T00:53:04.514Z,19.38
2023-07-11T00:55:04.127Z,19.31
2023-07-11T00:56:04.007Z,19.31
2023-07-11T00:57:03.774Z,19.31
2023-07-11T00:58:04.509Z,19.25
2023-07-11T00:59:04.099Z,19.25
2023-07-11T01:00:04.091Z,19.25
2023-07-11T01:01:04.184Z,19.25
2023-07-11T01:02:03.847Z,19.19
2023-07-11T01:03:03.981Z,19.19
2023-07-11T01:05:03.457Z,19.19
2023-07-11T01:06:04.467Z,19.12
2023-07-11T01:08:04.090Z,19.12
2023-07-11T01:09:04.824Z,19.12
2023-07-11T01:10:04.191Z,19.06
2023-07-11T01:12:03.617Z,19.06
2023-07-11T01:14:04.544Z,19.00
2023-07-11T01:15:04.415Z,19.00
2023-07-11T01:17:03.840Z,19.00
2023-07-11T01:18:03.880Z,19.00
2023-07-11T01:19:04.102Z,19.00
2023-07-11T01:20:04.158Z,18.94
2023-07-11T01:21:04.107Z,18.94
2023-07-11T01:22:03.721Z,18.94
2023-07-11T01:23:04.341Z,18.94
2023-07-11T01:26:04.478Z,18.88
2023-07-11T01:27:03.935Z,18.88
2023-07-11T01:29:04.499Z,18.81
2023-07-11T01:30:04.096Z,18.81
2023-07-11T01:31:04.146Z,18.81
2023-07-11T01:32:03.807Z,18.81
2023-07-11T01:33:04.483Z,18.81
2023-07-11T01:34:04.189Z,18.75
2023-07-11T01:35:04.252Z,18.75
2023-07-11T01:36:04.294Z,18.75
2023-07-11T01:37:03.780Z,18.75
2023-07-11T01:38:03.781Z,18.69
2023-07-11T01:40:04.263Z,18.69
2023-07-11T01:41:03.849Z,18.69
2023-07-11T01:42:03.944Z,18.62
2023-07-11T01:43:04.410Z,18.62
2023-07-11T01:46:04.524Z,18.56
2023-07-11T01:48:04.432Z,18.56
2023-07-11T01:49:04.426Z,18.56
2023-07-11T01:50:04.087Z,18.56
2023-07-11T01:51:03.597Z,18.56
2023-07-11T01:53:04.345Z,18.50
2023-07-11T01:54:03.955Z,18.50
2023-07-11T01:55:03.691Z,18.50
2023-07-11T01:56:03.942Z,18.50
2023-07-11T01:57:03.693Z,18.44
2023-07-11T01:58:03.711Z,18.44
2023-07-11T01:59:04.418Z,18.44
2023-07-11T02:01:04.182Z,18.44
2023-07-11T02:02:04.253Z,18.44
2023-07-11T02:03:04.104Z,18.38
2023-07-11T02:04:03.529Z,18.38
2023-07-11T02:05:03.540Z,18.38
2023-07-11T02:06:03.579Z,18.38
2023-07-11T02:07:04.410Z,18.38
2023-07-11T02:08:03.682Z,18.38
2023-07-11T02:09:03.780Z,18.38
2023-07-11T02:10:03.472Z,18.31
2023-07-11T02:11:04.354Z,18.31
2023-07-11T02:12:04.008Z,18.31
2023-07-11T02:14:04.137Z,18.25
2023-07-11T02:15:04.256Z,18.25
2023-07-11T02:16:04.301Z,18.25
2023-07-11T02:17:04.554Z,18.25
2023-07-11T02:18:03.647Z,18.25
2023-07-11T02:19:03.851Z,18.19
2023-07-11T02:20:03.861Z,18.19
2023-07-11T02:21:03.533Z,18.19
2023-07-11T02:23:04.198Z,18.19
2023-07-11T02:25:03.951Z,18.19
2023-07-11T02:26:03.752Z,18.12
2023-07-11T02:28:03.925Z,18.12
2023-07-11T02:29:03.614Z,18.12
2023-07-11T02:31:03.891Z,18.06
2023-07-11T02:32:03.560Z,18.06
2023-07-11T02:33:03.652Z,18.06
2023-07-11T02:34:04.401Z,18.00
2023-07-11T02:35:04.015Z,18.00
2023-07-11T02:36:04.131Z,18.00
2023-07-11T02:37:03.943Z,18.00
2023-07-11T02:38:03.556Z,18.00
2023-07-11T02:39:04.335Z,18.00
2023-07-11T02:40:04.010Z,17.94
2023-07-11T02:41:03.729Z,17.94
2023-07-11T02:43:04.411Z,17.94
2023-07-11T02:44:03.624Z,17.94
2023-07-11T02:45:04.164Z,17.94
2023-07-11T02:47:03.924Z,17.94
2023-07-11T02:49:06.504Z,17.94
2023-07-11T02:51:04.011Z,17.94
2023-07-11T02:52:03.686Z,17.94
2023-07-11T02:53:03.682Z,17.94
2023-07-11T02:54:03.774Z,17.94
2023-07-11T02:55:03.764Z,17.88
2023-07-11T02:56:03.988Z,17.88
2023-07-11T02:57:03.778Z,17.88
2023-07-11T02:58:03.451Z,17.88
2023-07-11T02:59:04.212Z,17.88
2023-07-11T03:00:03.781Z,17.81
2023-07-11T03:01:03.829Z,17.81
2023-07-11T03:03:04.522Z,17.81
2023-07-11T03:04:03.532Z,17.81
2023-07-11T03:05:05.069Z,17.81
2023-07-11T03:06:04.179Z,17.81
2023-07-11T03:07:03.932Z,17.81
2023-07-11T03:09:04.248Z,17.81
2023-07-11T03:10:03.800Z,17.75
2023-07-11T03:12:03.928Z,17.75
2023-07-11T03:14:03.726Z,17.75
2023-07-11T03:15:04.910Z,17.75
2023-07-11T03:17:03.738Z,17.75
2023-07-11T03:18:03.562Z,17.75
2023-07-11T03:19:04.415Z,17.75
2023-07-11T03:20:04.125Z,17.75
2023-07-11T03:22:04.407Z,17.75
2023-07-11T03:23:04.174Z,17.69
2023-07-11T03:24:04.253Z,17.69
2023-07-11T03:25:03.859Z,17.69
2023-07-11T03:26:04.280Z,17.75
2023-07-11T03:27:03.712Z,17.75
2023-07-11T03:28:03.777Z,17.75
2023-07-11T03:29:04.020Z,17.75
2023-07-11T03:31:03.852Z,17.75
2023-07-11T03:33:03.572Z,17.69
2023-07-11T03:34:03.456Z,17.69
2023-07-11T03:35:04.216Z,17.69
2023-07-11T03:36:04.373Z,17.69
2023-07-11T03:37:03.559Z,17.69
2023-07-11T03:38:03.529Z,17.69
2023-07-11T03:39:03.544Z,17.69
2023-07-11T03:40:04.088Z,17.69
2023-07-11T03:42:04.686Z,17.69
2023-07-11T03:43:04.216Z,17.69
2023-07-11T03:44:04.270Z,17.69
2023-07-11T03:46:03.856Z,17.69
2023-07-11T03:47:03.720Z,17.69
2023-07-11T03:48:04.452Z,17.69
2023-07-11T03:49:04.179Z,17.69
2023-07-11T03:51:04.491Z,17.75
2023-07-11T03:52:04.100Z,17.69
2023-07-11T03:54:04.424Z,17.75
2023-07-11T03:55:04.117Z,17.75
2023-07-11T03:56:04.229Z,17.75
2023-07-11T03:57:04.009Z,17.81
2023-07-11T03:58:03.697Z,17.81
2023-07-11T03:59:03.717Z,17.88
2023-07-11T04:00:04.485Z,17.94
2023-07-11T04:01:04.483Z,18.00
2023-07-11T04:03:04.394Z,18.12
2023-07-11T04:04:03.769Z,18.19
2023-07-11T04:05:04.515Z,18.25
2023-07-11T04:06:04.213Z,18.31
2023-07-11T04:07:03.611Z,18.38
2023-07-11T04:08:04.333Z,18.44
2023-07-11T04:09:03.928Z,18.50
2023-07-11T04:10:04.000Z,18.62
2023-07-11T04:11:04.090Z,18.69
2023-07-11T04:12:04.111Z,18.81
2023-07-11T04:13:04.172Z,18.94
2023-07-11T04:14:04.297Z,19.00
2023-07-11T04:15:03.532Z,19.12
2023-07-11T04:16:03.741Z,19.25
2023-07-11T04:17:04.446Z,19.31
2023-07-11T04:18:04.420Z,19.44
2023-07-11T04:19:03.606Z,19.50
2023-07-11T04:20:04.329Z,19.62
2023-07-11T04:21:04.329Z,19.69
2023-07-11T04:23:03.459Z,19.88
2023-07-11T04:25:04.511Z,20.12
2023-07-11T04:26:04.432Z,20.25
2023-07-11T04:27:04.108Z,20.31
2023-07-11T04:28:04.418Z,20.44
2023-07-11T04:30:04.143Z,20.62
2023-07-11T04:31:03.795Z,20.75
2023-07-11T04:32:04.516Z,20.88
2023-07-11T04:33:04.059Z,21.00
2023-07-11T04:35:03.884Z,21.19
2023-07-11T04:36:03.765Z,21.25
2023-07-11T04:38:04.093Z,21.50
2023-07-11T04:40:04.245Z,21.81
2023-07-11T04:41:04.024Z,21.88
2023-07-11T04:43:04.405Z,22.12
2023-07-11T04:46:03.926Z,22.50
2023-07-11T04:47:04.152Z,22.62
2023-07-11T04:48:04.359Z,22.69
2023-07-11T04:49:04.018Z,22.81
2023-07-11T04:50:04.512Z,23.00
2023-07-11T04:52:04.503Z,23.00
2023-07-11T04:53:04.091Z,23.12
2023-07-11T04:54:03.778Z,23.25
2023-07-11T04:55:04.494Z,23.38
2023-07-11T04:56:04.250Z,23.50
2023-07-11T04:57:04.010Z,23.56
2023-07-11T04:58:03.778Z,23.62
2023-07-11T04:59:04.517Z,23.75
2023-07-11T05:01:03.621Z,24.06
2023-07-11T05:02:04.332Z,24.25
2023-07-11T05:03:04.221Z,24.38
2023-07-11T05:04:03.952Z,24.56
2023-07-11T05:05:03.632Z,24.75
2023-07-11T05:06:03.946Z,24.88
2023-07-11T05:07:03.699Z,25.00
2023-07-11T05:08:04.328Z,25.19
2023-07-11T05:09:03.846Z,25.31
2023-07-11T05:10:04.033Z,25.44
2023-07-11T05:11:03.969Z,25.50
2023-07-11T05:13:03.529Z,25.62
2023-07-11T05:15:04.431Z,25.88
2023-07-11T05:16:04.289Z,26.00
2023-07-11T05:17:04.549Z,26.12
2023-07-11T05:18:04.495Z,26.31
2023-07-11T05:20:04.283Z,26.62
2023-07-11T05:22:03.466Z,26.88
2023-07-11T05:23:04.184Z,27.00
2023-07-11T05:24:04.295Z,27.19
2023-07-11T05:26:04.229Z,27.50
2023-07-11T05:27:04.359Z,27.69
2023-07-11T05:28:04.135Z,27.81
2023-07-11T05:30:03.697Z,28.12
2023-07-11T05:31:03.782Z,28.31
2023-07-11T05:32:03.954Z,28.50
2023-07-11T05:33:03.681Z,28.69
2023-07-11T05:34:03.615Z,28.94
2023-07-11T05:36:04.356Z,29.44
2023-07-11T05:37:03.628Z,29.62
2023-07-11T05:39:04.362Z,30.12
2023-07-11T05:40:04.012Z,30.38
2023-07-11T05:41:04.025Z,30.50
2023-07-11T05:42:03.643Z,30.81
2023-07-11T05:44:03.863Z,31.31
2023-07-11T05:46:04.657Z,31.69
2023-07-11T05:47:04.184Z,31.88
2023-07-11T05:48:03.893Z,32.25
2023-07-11T05:49:03.540Z,32.50
2023-07-11T05:51:04.366Z,32.88
2023-07-11T05:52:04.109Z,33.06
2023-07-11T05:54:04.488Z,33.44
2023-07-11T05:56:04.045Z,33.69
2023-07-11T05:57:03.798Z,33.81
2023-07-11T05:58:03.929Z,33.81
2023-07-11T05:59:03.621Z,34.06
2023-07-11T06:00:04.314Z,34.19
2023-07-11T06:01:04.294Z,34.25
2023-07-11T06:02:04.531Z,34.25
2023-07-11T06:04:03.760Z,34.19
2023-07-11T06:06:03.581Z,34.25
2023-07-11T06:08:03.615Z,34.50
2023-07-11T06:09:04.331Z,34.44
2023-07-11T06:10:03.865Z,34.62
2023-07-11T06:11:03.934Z,34.62
2023-07-11T06:12:03.789Z,34.38
2023-07-11T06:13:04.435Z,34.38
2023-07-11T06:14:04.595Z,34.50
2023-07-11T06:15:03.612Z,34.62
2023-07-11T06:16:03.728Z,34.75
2023-07-11T06:17:04.438Z,34.81
2023-07-11T06:18:04.332Z,34.88
2023-07-11T06:19:04.501Z,34.88
2023-07-11T06:20:04.024Z,34.88
2023-07-11T06:22:03.624Z,34.94
2023-07-11T06:23:04.255Z,34.88
2023-07-11T06:24:04.448Z,34.88
2023-07-11T06:25:04.337Z,34.88
2023-07-11T06:26:04.047Z,35.00
2023-07-11T06:27:04.343Z,35.00
2023-07-11T06:28:04.331Z,35.00
2023-07-11T06:30:04.014Z,35.00
2023-07-11T06:31:06.568Z,35.06
2023-07-11T06:33:04.078Z,34.69
2023-07-11T06:34:03.852Z,34.81
2023-07-11T06:35:04.376Z,34.75
2023-07-11T06:36:04.421Z,34.69
2023-07-11T06:37:04.101Z,34.94
2023-07-11T06:39:03.865Z,34.81
2023-07-11T06:41:04.520Z,34.81
2023-07-11T06:43:04.265Z,34.69
2023-07-11T06:44:04.032Z,34.88
2023-07-11T06:45:03.737Z,34.94
2023-07-11T06:46:04.427Z,34.75
2023-07-11T06:47:04.331Z,34.88
2023-07-11T06:48:03.939Z,34.94
2023-07-11T06:49:05.224Z,35.00
2023-07-11T06:51:04.086Z,35.00
2023-07-11T06:52:04.429Z,35.12
2023-07-11T06:54:04.430Z,35.06
2023-07-11T06:55:04.183Z,35.06
2023-07-11T06:57:04.104Z,35.06
2023-07-11T06:58:03.699Z,35.19
2023-07-11T06:59:03.734Z,35.25
2023-07-11T07:00:03.756Z,35.31
2023-07-11T07:01:04.514Z,35.44
2023-07-11T07:02:04.041Z,35.50
2023-07-11T07:03:04.123Z,35.56
2023-07-11T07:04:05.760Z,35.44
2023-07-11T07:05:03.631Z,35.44
2023-07-11T07:07:04.336Z,35.44
2023-07-11T07:08:13.843Z,35.31
2023-07-11T07:09:04.269Z,35.31
2023-07-11T07:10:04.289Z,35.38
2023-07-11T07:11:04.507Z,35.25
2023-07-11T07:13:03.774Z,35.44
2023-07-11T07:14:05.902Z,35.50
2023-07-11T07:15:03.783Z,35.69
2023-07-11T07:17:04.461Z,35.88
2023-07-11T07:18:04.313Z,36.00
2023-07-11T07:19:04.432Z,36.12
2023-07-11T07:20:04.522Z,36.19
2023-07-11T07:22:04.251Z,35.75
2023-07-11T07:24:03.583Z,35.56
2023-07-11T07:25:12.326Z,35.56
2023-07-11T07:26:04.637Z,35.75
2023-07-11T07:27:08.565Z,35.75
2023-07-11T07:28:04.432Z,35.75
2023-07-11T07:29:04.337Z,36.12
2023-07-11T07:31:03.882Z,36.31
2023-07-11T07:33:03.560Z,36.19
2023-07-11T07:34:04.414Z,36.12
2023-07-11T07:35:04.175Z,36.19
2023-07-11T07:37:04.199Z,36.31
2023-07-11T07:38:03.951Z,36.25
2023-07-11T07:40:03.714Z,36.00
2023-07-11T07:41:04.633Z,36.06
2023-07-11T07:42:04.434Z,36.12
2023-07-11T07:44:03.623Z,36.19
2023-07-11T07:45:04.101Z,36.06
2023-07-11T07:46:04.269Z,36.12
2023-07-11T07:47:04.568Z,36.12
2023-07-11T07:48:04.254Z,36.00
2023-07-11T07:49:04.110Z,35.94
2023-07-11T07:50:03.710Z,35.88
2023-07-11T07:51:04.845Z,36.00
2023-07-11T07:53:04.338Z,36.25
2023-07-11T07:54:03.938Z,36.31
2023-07-11T07:56:04.184Z,36.44
2023-07-11T07:58:04.142Z,36.44
2023-07-11T07:59:03.778Z,36.44
2023-07-11T08:01:04.605Z,36.62
2023-07-11T08:03:03.857Z,36.62
2023-07-11T08:04:04.073Z,36.62
2023-07-11T08:06:13.951Z,36.69
2023-07-11T08:07:03.934Z,36.69
2023-07-11T08:08:04.076Z,36.69
2023-07-11T08:09:04.261Z,36.69
2023-07-11T08:10:04.337Z,36.75
2023-07-11T08:11:04.148Z,36.69
2023-07-11T08:12:04.424Z,36.75
2023-07-11T08:14:04.416Z,36.81
2023-07-11T08:15:04.179Z,36.75
2023-07-11T08:16:12.070Z,36.81
2023-07-11T08:18:03.977Z,36.88
2023-07-11T08:19:03.850Z,36.81
2023-07-11T08:20:03.894Z,36.62
2023-07-11T08:22:04.328Z,36.62
2023-07-11T08:24:04.019Z,36.69
2023-07-11T08:25:03.869Z,36.56
2023-07-11T08:26:04.172Z,36.62
2023-07-11T08:28:03.959Z,36.50
2023-07-11T08:29:13.013Z,36.56
2023-07-11T08:31:04.339Z,36.56
2023-07-11T08:32:04.105Z,36.56
2023-07-11T08:33:04.285Z,36.56
2023-07-11T08:34:04.333Z,36.50
2023-07-11T08:35:04.089Z,36.50
2023-07-11T08:36:03.716Z,36.50
2023-07-11T08:37:03.851Z,36.38
2023-07-11T08:38:04.871Z,36.38
2023-07-11T08:39:04.026Z,36.38
2023-07-11T08:40:04.101Z,36.44
2023-07-11T08:41:04.282Z,36.44
2023-07-11T08:42:04.032Z,36.50
2023-07-11T08:43:03.613Z,36.44
2023-07-11T08:45:05.618Z,36.50
2023-07-11T08:47:04.389Z,36.50
2023-07-11T08:48:05.333Z,36.44
2023-07-11T08:50:03.621Z,36.19
2023-07-11T08:52:04.340Z,36.19
2023-07-11T08:54:03.534Z,36.00
2023-07-11T08:55:04.353Z,35.75
2023-07-11T08:56:04.023Z,35.69
2023-07-11T08:58:04.409Z,35.62
2023-07-11T09:00:04.192Z,35.50
2023-07-11T09:01:04.490Z,35.44
2023-07-11T09:02:03.738Z,35.44
2023-07-11T09:03:04.062Z,35.38
2023-07-11T09:04:04.110Z,35.44
2023-07-11T09:05:03.772Z,35.44
2023-07-11T09:06:04.543Z,35.44
2023-07-11T09:07:04.255Z,35.44
2023-07-11T09:08:04.012Z,35.38
2023-07-11T09:09:04.093Z,35.31
2023-07-11T09:10:04.188Z,35.38
2023-07-11T09:11:03.775Z,35.38
2023-07-11T09:12:04.013Z,35.31
2023-07-11T09:13:14.167Z,35.31
2023-07-11T09:15:04.123Z,35.25
2023-07-11T09:16:03.807Z,35.25
2023-07-11T09:17:04.003Z,35.25
2023-07-11T09:19:04.093Z,35.19
2023-07-11T09:20:03.773Z,35.12
2023-07-11T09:22:04.517Z,35.00
2023-07-11T09:23:04.204Z,35.06
2023-07-11T09:24:20.300Z,35.00
2023-07-11T09:25:03.613Z,35.00
2023-07-11T09:26:04.356Z,35.00
2023-07-11T09:27:04.266Z,35.00
2023-07-11T09:28:04.017Z,34.94
2023-07-11T09:30:04.268Z,34.69
2023-07-11T09:31:04.092Z,34.69
2023-07-11T09:32:04.021Z,34.50
2023-07-11T09:33:04.088Z,34.19
2023-07-11T09:34:03.930Z,34.12
2023-07-11T09:35:03.693Z,34.19
2023-07-11T09:36:03.608Z,34.25
2023-07-11T09:37:04.337Z,34.31
2023-07-11T09:39:03.539Z,34.38
2023-07-11T09:40:04.166Z,34.38
2023-07-11T09:41:04.247Z,34.31
2023-07-11T09:42:04.009Z,34.31
2023-07-11T09:44:03.545Z,34.31
2023-07-11T09:45:04.326Z,34.31
2023-07-11T09:46:03.816Z,34.25
2023-07-11T09:47:04.407Z,34.19
2023-07-11T09:48:04.557Z,34.12
2023-07-11T09:50:03.768Z,34.12
2023-07-11T09:51:12.532Z,34.19
2023-07-11T09:53:03.712Z,34.12
2023-07-11T09:54:05.428Z,34.19
2023-07-11T09:56:11.957Z,34.12
2023-07-11T09:57:03.842Z,34.12
2023-07-11T09:58:03.539Z,34.06
2023-07-11T09:59:04.353Z,34.06
2023-07-11T10:01:04.688Z,34.06
2023-07-11T10:02:04.490Z,34.00
2023-07-11T10:03:04.277Z,33.88
2023-07-11T10:04:04.035Z,33.81
2023-07-11T10:05:04.308Z,33.75
2023-07-11T10:06:04.225Z,33.81
2023-07-11T10:07:04.491Z,33.88
2023-07-11T10:08:04.360Z,33.94
2023-07-11T10:09:05.218Z,34.00
2023-07-11T10:10:03.612Z,34.00
2023-07-11T10:11:03.697Z,34.06
2023-07-11T10:12:04.264Z,34.06
2023-07-11T10:13:09.444Z,34.06
2023-07-11T10:15:03.745Z,34.06
2023-07-11T10:16:04.719Z,34.00
2023-07-11T10:17:03.731Z,33.94
2023-07-11T10:18:04.301Z,33.94
2023-07-11T10:19:03.919Z,33.94
2023-07-11T10:20:16.687Z,33.94
2023-07-11T10:21:04.273Z,33.94
2023-07-11T10:22:04.016Z,33.94
2023-07-11T10:23:04.094Z,34.00
2023-07-11T10:24:04.098Z,34.00
2023-07-11T10:26:03.916Z,34.06
2023-07-11T10:27:03.965Z,34.06
2023-07-11T10:28:03.682Z,34.12
2023-07-11T10:29:06.286Z,34.12
2023-07-11T10:30:04.121Z,34.06
2023-07-11T10:31:03.847Z,34.12
2023-07-11T10:32:04.510Z,34.12
2023-07-11T10:33:08.785Z,34.12
2023-07-11T10:34:04.212Z,34.19
2023-07-11T10:35:04.320Z,34.19
2023-07-11T10:36:04.633Z,34.19
2023-07-11T10:37:04.262Z,34.19
2023-07-11T10:38:04.255Z,34.19
2023-07-11T10:39:04.296Z,34.19
2023-07-11T10:40:04.348Z,34.19
2023-07-11T10:41:03.852Z,34.25
2023-07-11T10:42:03.923Z,34.25
2023-07-11T10:43:03.921Z,34.25
2023-07-11T10:44:03.436Z,34.25
2023-07-11T10:45:03.595Z,34.25
2023-07-11T10:46:03.715Z,34.25
2023-07-11T10:47:04.505Z,34.25
2023-07-11T10:48:03.762Z,34.25
2023-07-11T10:50:04.404Z,34.31
2023-07-11T10:51:04.038Z,34.25
2023-07-11T10:52:04.106Z,34.25
2023-07-11T10:53:03.975Z,34.25
2023-07-11T10:54:03.541Z,34.25
2023-07-11T10:55:04.351Z,34.25
2023-07-11T10:56:04.010Z,34.25
2023-07-11T10:57:03.867Z,34.25
2023-07-11T10:59:03.630Z,34.31
2023-07-11T11:01:04.282Z,34.31
2023-07-11T11:02:04.162Z,34.31
2023-07-11T11:03:03.916Z,34.31
2023-07-11T11:04:04.435Z,34.31
2023-07-11T11:05:04.196Z,34.38
2023-07-11T11:06:04.206Z,34.38
2023-07-11T11:08:04.326Z,34.38
2023-07-11T11:09:04.415Z,34.31
2023-07-11T11:10:04.095Z,34.31
2023-07-11T11:11:04.572Z,34.25
2023-07-11T11:12:04.022Z,34.19
2023-07-11T11:13:03.698Z,34.19
2023-07-11T11:14:04.300Z,34.12
2023-07-11T11:15:03.939Z,34.12
2023-07-11T11:17:04.343Z,34.19
2023-07-11T11:18:04.377Z,34.25
2023-07-11T11:19:04.802Z,34.31
2023-07-11T11:20:03.921Z,34.31
2023-07-11T11:21:13.179Z,34.38
2023-07-11T11:23:04.169Z,34.38
2023-07-11T11:24:03.943Z,34.38
2023-07-11T11:25:03.463Z,34.38
2023-07-11T11:26:03.626Z,34.44
2023-07-11T11:28:04.021Z,34.50
2023-07-11T11:29:04.118Z,34.50
2023-07-11T11:30:03.799Z,34.56
2023-07-11T11:31:04.391Z,34.56
2023-07-11T11:32:03.945Z,34.62
2023-07-11T11:33:04.340Z,34.62
2023-07-11T11:35:15.002Z,34.69
2023-07-11T11:36:03.942Z,34.69
2023-07-11T11:37:03.531Z,34.75
2023-07-11T11:38:03.566Z,34.75
2023-07-11T11:39:04.188Z,34.75
2023-07-11T11:40:04.291Z,34.81
2023-07-11T11:41:03.807Z,34.81
2023-07-11T11:43:03.635Z,34.88
2023-07-11T11:47:21.721Z,34.88
2023-07-11T11:53:03.711Z,35.00
2023-07-11T11:54:04.346Z,35.00
2023-07-11T11:55:05.148Z,35.00
2023-07-11T11:56:19.572Z,35.06
2023-07-11T11:57:03.689Z,35.06
2023-07-11T11:58:04.412Z,35.06
2023-07-11T11:59:04.044Z,35.06
2023-07-11T12:00:03.799Z,35.00
2023-07-11T12:01:03.859Z,35.06
2023-07-11T12:02:04.267Z,35.06
2023-07-11T12:03:04.006Z,35.12
2023-07-11T12:04:03.636Z,35.12
2023-07-11T12:05:04.454Z,35.12
2023-07-11T12:06:04.118Z,35.12
2023-07-11T12:08:04.016Z,35.12
2023-07-11T12:10:03.939Z,35.12
2023-07-11T12:11:04.516Z,35.19
2023-07-11T12:12:03.706Z,35.19
2023-07-11T12:14:05.483Z,35.19
2023-07-11T12:15:04.013Z,35.19
2023-07-11T12:16:03.625Z,35.12
2023-07-11T12:17:03.985Z,35.12
2023-07-11T12:18:03.761Z,35.19
2023-07-11T12:19:03.449Z,35.19
2023-07-11T12:20:03.772Z,35.19
2023-07-11T12:21:04.358Z,35.25
2023-07-11T12:22:04.518Z,35.25
2023-07-11T12:24:40.373Z,35.25
2023-07-11T12:25:04.286Z,35.19
2023-07-11T12:26:04.008Z,35.19
2023-07-11T12:27:03.684Z,35.12
2023-07-11T12:28:04.408Z,35.06
2023-07-11T12:29:04.143Z,35.06
2023-07-11T12:31:03.699Z,35.12
2023-07-11T12:32:04.310Z,35.12
2023-07-11T12:34:04.028Z,35.12
2023-07-11T12:36:03.627Z,35.12
2023-07-11T12:37:04.114Z,35.12
2023-07-11T12:38:03.994Z,35.12
2023-07-11T12:40:04.102Z,35.12
2023-07-11T12:41:04.011Z,35.12
2023-07-11T12:42:03.706Z,35.12
2023-07-11T12:43:04.319Z,35.12
2023-07-11T12:44:04.332Z,35.12
2023-07-11T12:45:04.331Z,35.19
2023-07-11T12:46:03.557Z,35.12
2023-07-11T12:47:04.191Z,35.12
2023-07-11T12:48:03.867Z,35.12
2023-07-11T12:50:04.406Z,35.19
2023-07-11T12:51:04.234Z,35.19
2023-07-11T12:52:04.252Z,35.25
2023-07-11T12:53:03.611Z,35.25
2023-07-11T12:54:04.021Z,35.25
2023-07-11T12:55:03.535Z,35.25
2023-07-11T12:57:04.342Z,35.31
2023-07-11T12:58:04.021Z,35.19
2023-07-11T12:59:04.089Z,35.06
2023-07-11T13:00:03.775Z,35.06
2023-07-11T13:01:04.493Z,35.06
2023-07-11T13:02:04.330Z,35.06
2023-07-11T13:03:03.842Z,35.06
2023-07-11T13:05:04.027Z,35.19
2023-07-11T13:06:20.297Z,35.25
2023-07-11T13:07:03.622Z,35.25
2023-07-11T13:08:03.529Z,35.25
2023-07-11T13:09:03.770Z,35.25
2023-07-11T13:10:04.482Z,35.25
2023-07-11T13:11:04.370Z,35.25
2023-07-11T13:13:03.936Z,35.25
2023-07-11T13:14:03.983Z,35.25
2023-07-11T13:15:04.418Z,35.25
2023-07-11T13:16:04.382Z,35.25
2023-07-11T13:17:04.585Z,35.31
2023-07-11T13:19:04.089Z,35.25
2023-07-11T13:20:03.693Z,35.19
2023-07-11T13:21:04.470Z,35.19
2023-07-11T13:23:03.768Z,35.19
2023-07-11T13:24:04.432Z,35.19
2023-07-11T13:26:03.601Z,35.19
2023-07-11T13:27:04.248Z,35.25
2023-07-11T13:28:03.774Z,35.25
2023-07-11T13:29:03.985Z,35.25
2023-07-11T13:30:04.136Z,35.25
2023-07-11T13:31:04.501Z,35.25
2023-07-11T13:32:04.317Z,35.25
2023-07-11T13:33:03.994Z,35.25
2023-07-11T13:35:04.510Z,35.19
2023-07-11T13:37:04.277Z,35.12
2023-07-11T13:38:04.043Z,35.12
2023-07-11T13:39:03.707Z,35.19
2023-07-11T13:40:04.285Z,35.19
2023-07-11T13:41:04.117Z,35.19
2023-07-11T13:43:04.503Z,35.19
2023-07-11T13:45:04.278Z,35.25
2023-07-11T13:47:04.015Z,35.25
2023-07-11T13:48:04.004Z,35.25
2023-07-11T13:49:03.730Z,35.25
2023-07-11T13:50:04.288Z,35.31
2023-07-11T13:51:04.198Z,35.31
2023-07-11T13:52:04.447Z,35.31
2023-07-11T13:53:04.119Z,35.38
2023-07-11T13:55:04.510Z,35.38
2023-07-11T13:56:04.437Z,35.38
2023-07-11T13:58:04.218Z,35.38
2023-07-11T13:59:03.675Z,35.38
2023-07-11T14:00:12.941Z,35.38
2023-07-11T14:02:04.409Z,35.38
2023-07-11T14:03:04.123Z,35.38
2023-07-11T14:04:03.607Z,35.38
2023-07-11T14:05:03.872Z,35.38
2023-07-11T14:06:03.622Z,35.38
2023-07-11T14:07:03.619Z,35.38
2023-07-11T14:09:04.176Z,35.38
2023-07-11T14:10:03.798Z,35.38
2023-07-11T14:11:03.867Z,35.38
2023-07-11T14:12:04.518Z,35.38
2023-07-11T14:14:04.224Z,35.44
2023-07-11T14:15:03.870Z,35.44
2023-07-11T14:16:03.959Z,35.44
2023-07-11T14:17:04.438Z,35.44
2023-07-11T14:18:04.184Z,35.50
2023-07-11T14:19:04.088Z,35.50
2023-07-11T14:21:04.685Z,35.62
2023-07-11T14:23:03.569Z,35.62
2023-07-11T14:24:04.182Z,35.62
2023-07-11T14:25:04.082Z,35.62
2023-07-11T14:26:04.096Z,35.62
2023-07-11T14:27:04.106Z,35.62
2023-07-11T14:29:04.340Z,35.62
2023-07-11T14:30:04.291Z,35.62
2023-07-11T14:32:04.253Z,35.62
2023-07-11T14:33:03.887Z,35.62
2023-07-11T14:34:04.429Z,35.62
2023-07-11T14:36:03.633Z,35.62
2023-07-11T14:37:04.255Z,35.62
2023-07-11T14:38:04.411Z,35.62
2023-07-11T14:41:05.104Z,35.62
2023-07-11T14:42:03.694Z,35.69
2023-07-11T14:43:04.259Z,35.69
2023-07-11T14:44:04.381Z,35.69
2023-07-11T14:45:03.949Z,35.62
2023-07-11T14:46:03.550Z,35.69
2023-07-11T14:47:03.976Z,35.69
2023-07-11T14:48:04.004Z,35.69
2023-07-11T14:49:04.177Z,35.69
2023-07-11T14:50:04.188Z,35.69
2023-07-11T14:52:03.619Z,35.69
2023-07-11T14:53:04.368Z,35.69
2023-07-11T14:54:04.026Z,35.69
2023-07-11T14:58:03.618Z,35.56
2023-07-11T14:59:04.130Z,35.56
2023-07-11T15:00:04.106Z,35.56
2023-07-11T15:01:03.732Z,35.56
2023-07-11T15:03:03.988Z,35.56
2023-07-11T15:09:12.673Z,35.50
2023-07-11T15:10:04.570Z,35.44
2023-07-11T15:11:04.649Z,35.38
2023-07-11T15:12:06.423Z,35.38
2023-07-11T15:16:04.268Z,35.19
2023-07-11T15:17:04.464Z,35.19
2023-07-11T15:18:04.224Z,35.19
2023-07-11T15:19:03.971Z,35.19
2023-07-11T15:20:04.442Z,35.12
2023-07-11T15:21:04.233Z,35.12
2023-07-11T15:22:04.098Z,35.12
2023-07-11T15:23:04.180Z,35.12
2023-07-11T15:25:03.941Z,35.06
2023-07-11T15:26:03.623Z,35.06
2023-07-11T15:27:04.259Z,35.06
2023-07-11T15:28:03.810Z,35.06
2023-07-11T15:29:03.930Z,35.00
2023-07-11T15:30:03.930Z,35.00
2023-07-11T15:31:03.577Z,35.00
2023-07-11T15:32:04.255Z,34.94
2023-07-11T15:33:03.941Z,34.94
2023-07-11T15:35:04.075Z,34.94
2023-07-11T15:36:03.680Z,34.94
2023-07-11T15:37:04.338Z,34.94
2023-07-11T15:38:03.956Z,34.94
2023-07-11T15:40:04.249Z,34.88
2023-07-11T15:42:03.855Z,34.88
2023-07-11T15:43:03.932Z,34.88
2023-07-11T15:44:03.530Z,34.88
2023-07-11T15:46:04.588Z,34.88
2023-07-11T15:48:03.734Z,34.81
2023-07-11T15:49:03.618Z,34.81
2023-07-11T15:50:04.089Z,34.75
2023-07-11T15:52:04.246Z,34.75
2023-07-11T15:53:04.411Z,34.69
2023-07-11T15:54:03.932Z,34.69
2023-07-11T15:55:04.416Z,34.69
2023-07-11T15:56:04.417Z,34.69
2023-07-11T15:57:04.112Z,34.69
2023-07-11T15:58:04.013Z,34.69
2023-07-11T15:59:03.562Z,34.69
2023-07-11T16:00:04.191Z,34.69
2023-07-11T16:02:04.451Z,34.69
2023-07-11T16:03:04.320Z,34.69
2023-07-11T16:04:04.142Z,34.69
2023-07-11T16:05:04.020Z,34.75